createdAt,value
2019-02-22T00:02:13.458Z,78.73
2019-02-22T00:07:15.098Z,78.92
2019-02-22T00:12:16.769Z,78.80
2019-02-22T00:17:18.320Z,78.89
2019-02-22T00:22:19.931Z,78.68
2019-02-22T00:27:22.109Z,79.17
2019-02-22T00:32:23.944Z,79.70
2019-02-22T00:37:25.645Z,79.65
2019-02-22T00:42:27.888Z,79.58
2019-02-22T00:47:29.421Z,79.67
2019-02-22T00:52:31.999Z,79.78
2019-02-22T00:57:33.625Z,79.55
2019-02-22T01:02:35.582Z,79.83
2019-02-22T01:07:37.519Z,79.31
2019-02-22T01:12:39.119Z,79.60
2019-02-22T01:17:41.123Z,79.80
2019-02-22T01:22:42.681Z,79.44
2019-02-22T01:27:44.231Z,79.53
2019-02-22T01:32:45.785Z,79.48
2019-02-22T01:37:47.692Z,79.26
2019-02-22T01:42:49.309Z,79.77
2019-02-22T01:47:50.899Z,80.18
2019-02-22T01:52:52.459Z,80.52
2019-02-22T01:57:54.542Z,80.63
2019-02-22T02:02:56.088Z,80.43
2019-02-22T02:07:57.718Z,80.19
2019-02-22T02:12:59.341Z,80.12
2019-02-22T02:18:00.827Z,79.98
2019-02-22T02:23:02.403Z,80.04
2019-02-22T02:28:04.009Z,80.41
2019-02-22T02:33:05.643Z,80.12
2019-02-22T02:38:07.295Z,79.98
2019-02-22T02:43:09.318Z,79.72
2019-02-22T02:48:10.882Z,79.58
2019-02-22T02:53:12.512Z,79.59
2019-02-22T02:58:14.040Z,79.69
2019-02-22T03:03:16.092Z,79.90
2019-02-22T03:08:17.631Z,80.29
2019-02-22T03:13:19.285Z,80.60
2019-02-22T03:18:20.878Z,80.39
2019-02-22T03:23:22.482Z,80.12
2019-02-22T03:28:24.082Z,79.98
2019-02-22T03:33:25.819Z,79.58
2019-02-22T03:38:27.335Z,80.03
2019-02-22T03:43:28.974Z,79.83
2019-02-22T03:48:30.528Z,79.92
2019-02-22T03:53:32.143Z,79.46
2019-02-22T03:58:33.743Z,79.37
2019-02-22T04:03:35.371Z,79.32
2019-02-22T04:08:36.865Z,79.31
2019-02-22T04:13:38.913Z,79.29
2019-02-22T04:18:40.450Z,79.27
2019-02-22T04:23:42.423Z,79.68
2019-02-22T04:28:44.010Z,79.46
2019-02-22T04:33:45.578Z,79.43
2019-02-22T04:38:47.189Z,79.96
2019-02-22T04:43:48.793Z,80.43
2019-02-22T04:48:50.727Z,80.15
2019-02-22T04:53:52.650Z,80.21
2019-02-22T04:58:54.192Z,80.04
2019-02-22T05:03:56.266Z,79.62
2019-02-22T05:08:57.791Z,79.29
2019-02-22T05:13:59.354Z,79.45
2019-02-22T05:19:00.935Z,79.50
2019-02-22T05:24:02.494Z,79.73
2019-02-22T05:29:04.051Z,79.45
2019-02-22T05:34:05.684Z,79.22
2019-02-22T05:39:18.557Z,79.33
2019-02-22T05:44:10.958Z,79.73
2019-02-22T05:49:12.716Z,79.51
2019-02-22T05:54:14.500Z,79.55
2019-02-22T05:59:16.063Z,79.92
2019-02-22T06:04:17.665Z,80.08
2019-02-22T06:09:19.779Z,80.27
2019-02-22T06:14:21.360Z,80.12
2019-02-22T06:19:22.940Z,80.05
2019-02-22T06:24:24.750Z,79.92
2019-02-22T06:29:26.380Z,79.78
2019-02-22T06:34:27.960Z,79.39
2019-02-22T06:39:29.686Z,79.24
2019-02-22T06:44:31.235Z,79.42
2019-02-22T06:49:32.894Z,79.48
2019-02-22T06:54:35.230Z,79.45
2019-02-22T06:59:37.087Z,79.13
2019-02-22T07:04:38.690Z,80.20
2019-02-22T07:09:40.382Z,79.19
2019-02-22T07:14:41.937Z,78.64
2019-02-22T07:19:43.582Z,78.47
2019-02-22T07:24:45.099Z,78.55
2019-02-22T07:29:46.707Z,78.70
2019-02-22T07:34:48.671Z,79.24
2019-02-22T07:39:50.223Z,79.55
2019-02-22T07:44:51.816Z,79.63
2019-02-22T07:49:53.474Z,79.86
2019-02-22T07:54:55.024Z,79.41
2019-02-22T07:59:56.579Z,79.50
2019-02-22T08:04:58.115Z,79.03
2019-02-22T08:09:59.680Z,79.14
2019-02-22T08:15:03.111Z,79.15
2019-02-22T08:20:04.883Z,78.69
2019-02-22T08:25:06.976Z,78.37
2019-02-22T08:30:08.858Z,77.92
2019-02-22T08:35:10.447Z,77.63
2019-02-22T08:40:12.395Z,76.81
2019-02-22T08:45:13.983Z,76.27
2019-02-22T08:50:15.524Z,75.79
2019-02-22T08:55:17.106Z,76.47
2019-02-22T09:00:18.622Z,76.63
2019-02-22T09:05:20.257Z,76.15
2019-02-22T09:10:22.265Z,76.23
2019-02-22T09:15:23.838Z,76.02
2019-02-22T09:20:25.449Z,75.71
2019-02-22T09:25:26.937Z,76.00
2019-02-22T09:30:28.490Z,76.79
2019-02-22T09:35:30.051Z,76.09
2019-02-22T09:40:32.133Z,75.13
2019-02-22T09:45:33.705Z,74.29
2019-02-22T09:50:35.263Z,73.48
2019-02-22T09:55:36.854Z,74.52
2019-02-22T10:00:38.399Z,74.88
2019-02-22T10:05:39.969Z,75.18
2019-02-22T10:10:41.583Z,74.78
2019-02-22T10:15:43.406Z,73.79
2019-02-22T10:20:45.049Z,73.93
2019-02-22T10:25:46.587Z,74.20
2019-02-22T10:30:48.145Z,74.53
2019-02-22T10:35:49.703Z,72.93
2019-02-22T10:40:51.301Z,72.55
2019-02-22T10:45:52.854Z,72.79
2019-02-22T10:50:54.413Z,72.88
2019-02-22T10:55:56.307Z,70.96
2019-02-22T11:00:57.930Z,70.51
2019-02-22T11:05:59.491Z,70.22
2019-02-22T11:11:01.204Z,69.33
2019-02-22T11:16:02.745Z,70.01
2019-02-22T11:21:04.276Z,70.17
2019-02-22T11:26:06.303Z,69.98
2019-02-22T11:31:07.839Z,70.34
2019-02-22T11:36:09.681Z,69.30
2019-02-22T11:41:11.250Z,69.41
2019-02-22T11:46:12.861Z,69.67
2019-02-22T11:51:14.455Z,68.75
2019-02-22T11:56:16.009Z,67.53
2019-02-22T12:01:17.838Z,68.50
2019-02-22T12:06:19.362Z,68.35
2019-02-22T12:11:20.934Z,67.66
2019-02-22T12:16:22.926Z,67.09
2019-02-22T12:21:24.498Z,67.31
2019-02-22T12:26:26.048Z,67.23
2019-02-22T12:31:27.625Z,66.79
2019-02-22T12:36:29.535Z,66.69
2019-02-22T12:41:31.146Z,66.43
2019-02-22T12:46:32.676Z,66.96
2019-02-22T12:51:34.265Z,67.72
2019-02-22T13:01:39.449Z,68.56
2019-02-22T13:06:41.048Z,68.39
2019-02-22T13:11:42.657Z,68.89
2019-02-22T13:16:44.204Z,69.54
2019-02-22T13:21:45.843Z,70.02
2019-02-22T13:26:47.457Z,70.22
2019-02-22T13:31:49.030Z,70.25
2019-02-22T13:36:50.658Z,70.24
2019-02-22T13:41:52.207Z,70.44
2019-02-22T13:46:55.774Z,70.46
2019-02-22T13:51:57.327Z,70.36
2019-02-22T13:56:58.869Z,70.72
2019-02-22T14:02:01.132Z,71.21
2019-02-22T14:07:03.174Z,71.50
2019-02-22T14:12:04.738Z,71.70
2019-02-22T14:17:06.285Z,71.88
2019-02-22T14:22:07.809Z,71.38
2019-02-22T14:27:09.931Z,71.80
2019-02-22T14:32:11.556Z,71.54
2019-02-22T14:37:13.104Z,71.55
2019-02-22T14:42:14.676Z,71.76
2019-02-22T14:47:16.229Z,71.81
2019-02-22T14:52:17.838Z,71.70
2019-02-22T14:57:19.424Z,71.78
2019-02-22T15:02:20.999Z,71.72
2019-02-22T15:07:22.644Z,71.70
2019-02-22T15:12:24.852Z,72.25
2019-02-22T15:17:27.398Z,72.56
2019-02-22T15:22:32.227Z,72.68
2019-02-22T15:27:36.259Z,72.40
2019-02-22T15:32:37.371Z,72.51
2019-02-22T15:37:39.013Z,72.59
2019-02-22T15:42:40.814Z,72.76
2019-02-22T15:47:42.427Z,72.65
2019-02-22T15:52:44.545Z,72.77
2019-02-22T15:57:46.273Z,72.99
2019-02-22T16:02:48.381Z,73.19
2019-02-22T16:07:50.345Z,73.45
2019-02-22T16:12:51.901Z,73.61
2019-02-22T16:17:53.640Z,73.78
2019-02-22T16:22:55.266Z,74.00
2019-02-22T16:27:56.804Z,74.06
2019-02-22T16:32:58.413Z,74.44
2019-02-22T16:38:00.206Z,74.72
2019-02-22T16:43:02.129Z,74.69
2019-02-22T16:48:04.265Z,75.29
2019-02-22T16:53:05.832Z,75.84
2019-02-22T16:58:07.783Z,75.85
2019-02-22T17:03:09.469Z,75.78
2019-02-22T17:08:11.032Z,75.83
2019-02-22T17:13:12.592Z,76.09
2019-02-22T17:18:14.595Z,76.65
2019-02-22T17:23:16.170Z,76.96
2019-02-22T17:28:18.078Z,76.92
2019-02-22T17:33:19.665Z,77.93
2019-02-22T17:38:21.266Z,78.52
2019-02-22T17:43:23.707Z,78.49
2019-02-22T17:48:25.259Z,78.16
2019-02-22T17:53:27.014Z,78.46
2019-02-22T17:58:28.761Z,78.33
2019-02-22T18:03:30.430Z,78.55
2019-02-22T18:08:32.415Z,78.49
2019-02-22T18:13:34.728Z,78.17
2019-02-22T18:18:36.771Z,78.00
2019-02-22T18:23:38.410Z,77.84
2019-02-22T18:28:40.043Z,77.94
2019-02-22T18:33:41.978Z,77.81
2019-02-22T18:38:43.644Z,77.67
2019-02-22T18:43:45.560Z,77.53
2019-02-22T18:48:47.221Z,77.56
2019-02-22T18:53:49.357Z,77.62
2019-02-22T18:58:51.361Z,77.66
2019-02-22T19:03:53.011Z,77.63
2019-02-22T19:08:54.713Z,77.82
2019-02-22T19:13:56.304Z,78.44
2019-02-22T19:18:57.892Z,79.40
2019-02-22T19:23:59.487Z,80.08
2019-02-22T19:29:01.204Z,80.01
2019-02-22T19:34:03.162Z,80.89
2019-02-22T19:39:05.165Z,81.41
2019-02-22T19:44:06.816Z,80.89
2019-02-22T19:49:08.500Z,81.68
2019-02-22T19:54:10.065Z,81.43
2019-02-22T19:59:12.723Z,81.61
2019-02-22T20:04:14.660Z,82.21
2019-02-22T20:09:16.502Z,82.12
2019-02-22T20:14:18.464Z,82.60
2019-02-22T20:19:20.618Z,82.00
2019-02-22T20:24:23.445Z,81.86
2019-02-22T20:29:25.340Z,81.63
2019-02-22T20:34:29.035Z,82.46
2019-02-22T20:39:30.760Z,82.07
2019-02-22T20:44:32.405Z,81.94
2019-02-22T20:49:34.097Z,81.69
2019-02-22T20:54:35.806Z,81.47
2019-02-22T20:59:37.488Z,81.43
2019-02-22T21:04:39.114Z,81.27
2019-02-22T21:09:41.112Z,81.28
2019-02-22T21:14:43.055Z,81.10
2019-02-22T21:19:44.645Z,81.24
2019-02-22T21:24:46.630Z,81.26
2019-02-22T21:29:48.197Z,81.34
2019-02-22T21:34:49.775Z,81.28
2019-02-22T21:39:51.429Z,81.23
2019-02-22T21:44:53.049Z,81.25
2019-02-22T21:49:54.823Z,81.36
2019-02-22T21:54:56.439Z,81.78
2019-02-22T21:59:57.987Z,81.83
2019-02-22T22:04:59.566Z,81.89
2019-02-22T22:10:01.584Z,82.11
2019-02-22T22:15:03.270Z,81.99
2019-02-22T22:20:04.839Z,81.99
2019-02-22T22:25:07.256Z,81.92
2019-02-22T22:30:09.620Z,81.97
2019-02-22T22:35:11.317Z,81.93
2019-02-22T22:40:12.889Z,81.99
2019-02-22T22:45:14.587Z,81.83
2019-02-22T22:50:16.123Z,81.78
2019-02-22T22:55:17.829Z,81.98
2019-02-22T23:00:35.672Z,82.11
2019-02-22T23:05:37.358Z,81.97
2019-02-22T23:10:38.882Z,82.26
2019-02-22T23:15:40.442Z,82.42
2019-02-22T23:20:42.330Z,82.66
2019-02-22T23:25:43.875Z,82.43
2019-02-22T23:30:45.477Z,82.57
2019-02-22T23:35:47.023Z,82.44
2019-02-22T23:40:48.591Z,82.35
2019-02-22T23:45:50.156Z,82.54
2019-02-22T23:50:51.709Z,82.64
2019-02-22T23:55:53.615Z,82.80
